createdAt,value
2022-10-21T00:00:50.180Z,11.47
2022-10-21T00:03:20.633Z,10.23
2022-10-21T00:05:49.519Z,12.07
2022-10-21T00:08:18.450Z,10.57
2022-10-21T00:10:46.261Z,12.17
2022-10-21T00:13:14.578Z,11.70
2022-10-21T00:15:42.233Z,11.13
2022-10-21T00:18:10.323Z,10.23
2022-10-21T00:20:41.145Z,9.87
2022-10-21T00:23:09.515Z,9.80
2022-10-21T00:25:39.882Z,10.07
2022-10-21T00:28:08.029Z,8.57
2022-10-21T00:30:35.751Z,10.27
2022-10-21T00:33:03.856Z,12.07
2022-10-21T00:35:34.433Z,11.53
2022-10-21T00:38:04.018Z,10.77
2022-10-21T00:40:31.781Z,10.90
2022-10-21T00:43:00.005Z,10.13
2022-10-21T00:45:29.549Z,9.83
2022-10-21T00:48:03.714Z,8.17
2022-10-21T00:50:37.515Z,11.87
2022-10-21T00:53:15.387Z,11.30
2022-10-21T00:55:48.527Z,11.60
2022-10-21T00:58:18.312Z,9.90
2022-10-21T01:00:46.096Z,12.17
2022-10-21T01:03:14.512Z,13.43
2022-10-21T01:05:43.337Z,13.17
2022-10-21T01:08:13.040Z,11.13
2022-10-21T01:10:41.135Z,11.73
2022-10-21T01:13:20.806Z,10.80
2022-10-21T01:15:57.193Z,8.33
2022-10-21T01:18:32.851Z,13.60
2022-10-21T01:21:11.033Z,9.57
2022-10-21T01:24:09.601Z,11.07
2022-10-21T01:27:13.406Z,12.23
2022-10-21T01:30:20.691Z,13.53
2022-10-21T01:35:50.658Z,10.17
2022-10-21T01:38:25.325Z,10.50
2022-10-21T01:40:58.596Z,9.83
2022-10-21T01:43:35.245Z,11.90
2022-10-21T01:46:08.234Z,9.67
2022-10-21T01:48:42.928Z,9.70
2022-10-21T01:51:13.354Z,9.73
2022-10-21T01:53:45.293Z,7.37
2022-10-21T01:56:15.648Z,9.00
2022-10-21T01:58:46.601Z,10.83
2022-10-21T02:01:16.499Z,10.60
2022-10-21T02:03:49.752Z,12.50
2022-10-21T02:06:18.269Z,9.43
2022-10-21T02:08:46.200Z,10.63
2022-10-21T02:11:15.581Z,10.17
2022-10-21T02:13:49.473Z,8.13
2022-10-21T02:16:22.443Z,11.43
2022-10-21T02:18:51.446Z,15.10
2022-10-21T02:21:22.136Z,7.73
2022-10-21T02:23:54.437Z,7.60
2022-10-21T02:26:23.483Z,8.97
2022-10-21T02:28:52.761Z,8.40
2022-10-21T02:31:36.111Z,8.17
2022-10-21T02:34:18.998Z,10.23
2022-10-21T02:36:55.537Z,8.87
2022-10-21T02:39:31.092Z,6.07
2022-10-21T02:42:01.313Z,5.83
2022-10-21T02:44:29.058Z,7.07
2022-10-21T02:46:57.495Z,6.40
2022-10-21T02:49:26.579Z,7.50
2022-10-21T02:51:54.896Z,6.97
2022-10-21T02:54:22.806Z,7.43
2022-10-21T02:56:51.219Z,11.37
2022-10-21T02:59:18.856Z,10.60
2022-10-21T03:01:46.814Z,7.77
2022-10-21T03:04:14.477Z,8.93
2022-10-21T03:06:44.030Z,6.17
2022-10-21T03:09:11.661Z,6.90
2022-10-21T03:11:39.948Z,7.80
2022-10-21T03:14:07.641Z,6.40
2022-10-21T03:16:36.153Z,6.13
2022-10-21T03:19:03.870Z,6.53
2022-10-21T03:21:31.872Z,16.37
2022-10-21T03:24:00.873Z,9.73
2022-10-21T03:26:28.757Z,7.30
2022-10-21T03:28:56.402Z,5.47
2022-10-21T03:31:24.414Z,6.77
2022-10-21T03:33:52.068Z,8.73
2022-10-21T03:36:20.542Z,12.63
2022-10-21T03:38:48.198Z,8.40
2022-10-21T03:41:17.732Z,8.50
2022-10-21T03:43:45.431Z,8.50
2022-10-21T03:46:13.546Z,8.03
2022-10-21T03:48:41.198Z,6.17
2022-10-21T03:51:09.287Z,8.50
2022-10-21T03:53:43.865Z,27.07
2022-10-21T03:56:12.831Z,9.00
2022-10-21T03:58:42.529Z,9.87
2022-10-21T04:01:12.737Z,9.30
2022-10-21T04:03:40.619Z,9.07
2022-10-21T04:06:08.424Z,11.93
2022-10-21T04:08:36.108Z,11.07
2022-10-21T04:11:04.433Z,8.53
2022-10-21T04:13:32.718Z,10.73
2022-10-21T04:16:03.884Z,10.73
2022-10-21T04:18:31.890Z,9.47
2022-10-21T04:20:59.558Z,7.73
2022-10-21T04:23:27.270Z,9.10
2022-10-21T04:25:54.931Z,8.67
2022-10-21T04:28:22.911Z,8.03
2022-10-21T04:30:51.250Z,6.20
2022-10-21T04:33:20.898Z,6.77
2022-10-21T04:35:48.657Z,6.90
2022-10-21T04:38:16.550Z,6.03
2022-10-21T04:40:44.209Z,7.07
2022-10-21T04:43:12.586Z,7.47
2022-10-21T04:45:40.592Z,6.80
2022-10-21T04:48:09.032Z,7.63
2022-10-21T04:50:38.027Z,5.87
2022-10-21T04:53:06.175Z,8.40
2022-10-21T04:55:33.829Z,8.27
2022-10-21T04:58:01.503Z,6.23
2022-10-21T05:00:29.160Z,8.13
2022-10-21T05:02:56.802Z,9.87
2022-10-21T05:05:24.462Z,7.30
2022-10-21T05:07:54.361Z,7.40
2022-10-21T05:10:22.410Z,6.33
2022-10-21T05:12:50.576Z,6.50
2022-10-21T05:15:18.435Z,7.73
2022-10-21T05:17:46.089Z,7.13
2022-10-21T05:20:13.935Z,7.53
2022-10-21T05:22:42.037Z,6.40
2022-10-21T05:25:11.551Z,8.17
2022-10-21T05:27:39.715Z,7.73
2022-10-21T05:30:08.711Z,8.00
2022-10-21T05:32:36.750Z,7.13
2022-10-21T05:35:04.770Z,6.83
2022-10-21T05:37:32.877Z,6.37
2022-10-21T05:40:00.648Z,7.37
2022-10-21T05:42:29.654Z,6.83
2022-10-21T05:44:57.289Z,6.70
2022-10-21T05:47:25.533Z,6.57
2022-10-21T05:49:53.519Z,5.47
2022-10-21T05:52:21.451Z,6.53
2022-10-21T05:54:49.159Z,9.07
2022-10-21T05:57:17.256Z,8.70
2022-10-21T05:59:46.247Z,8.53
2022-10-21T06:02:14.332Z,8.93
2022-10-21T06:04:41.970Z,9.83
2022-10-21T06:07:10.077Z,7.40
2022-10-21T06:09:38.725Z,7.23
2022-10-21T06:12:07.477Z,6.60
2022-10-21T06:14:36.244Z,7.33
2022-10-21T06:17:05.962Z,6.70
2022-10-21T06:19:33.633Z,7.53
2022-10-21T06:22:01.276Z,7.37
2022-10-21T06:24:29.906Z,7.63
2022-10-21T06:26:58.027Z,8.07
2022-10-21T06:29:25.778Z,7.43
2022-10-21T06:31:53.711Z,7.30
2022-10-21T06:34:22.806Z,7.00
2022-10-21T06:36:50.842Z,7.27
2022-10-21T06:39:18.472Z,6.87
2022-10-21T06:41:46.778Z,7.27
2022-10-21T06:44:25.855Z,8.97
2022-10-21T06:46:54.549Z,9.77
2022-10-21T06:49:23.583Z,9.07
2022-10-21T06:51:51.958Z,10.93
2022-10-21T06:54:19.678Z,8.17
2022-10-21T06:56:48.010Z,8.37
2022-10-21T06:59:15.671Z,8.20
2022-10-21T07:02:00.874Z,7.13
2022-10-21T07:04:30.622Z,8.47
2022-10-21T07:06:58.873Z,6.00
2022-10-21T07:09:26.951Z,7.27
2022-10-21T07:11:55.342Z,6.77
2022-10-21T07:14:22.973Z,7.43
2022-10-21T07:16:52.477Z,7.13
2022-10-21T07:19:20.250Z,6.67
2022-10-21T07:21:50.036Z,8.23
2022-10-21T07:24:22.151Z,5.53
2022-10-21T07:26:51.534Z,5.50
2022-10-21T07:29:19.871Z,5.83
2022-10-21T07:31:48.158Z,6.17
2022-10-21T07:34:15.888Z,4.37
2022-10-21T07:36:48.024Z,5.57
2022-10-21T07:39:18.416Z,6.67
2022-10-21T07:41:48.469Z,5.23
2022-10-21T07:44:16.520Z,6.17
2022-10-21T07:46:46.327Z,5.93
2022-10-21T07:49:14.731Z,6.20
2022-10-21T07:51:43.474Z,5.77
2022-10-21T07:54:11.107Z,9.60
2022-10-21T07:56:43.457Z,7.03
2022-10-21T07:59:13.249Z,6.67
2022-10-21T08:01:44.370Z,5.60
2022-10-21T08:04:13.938Z,10.37
2022-10-21T08:06:42.357Z,6.70
2022-10-21T08:09:10.336Z,6.77
2022-10-21T08:11:38.573Z,8.70
2022-10-21T08:14:09.278Z,7.37
2022-10-21T08:16:37.832Z,5.63
2022-10-21T08:19:06.426Z,6.60
2022-10-21T08:21:35.823Z,5.50
2022-10-21T08:24:04.426Z,7.07
2022-10-21T08:26:32.947Z,5.23
2022-10-21T08:29:00.809Z,4.90
2022-10-21T08:31:30.113Z,10.43
2022-10-21T08:33:58.159Z,10.80
2022-10-21T08:36:27.317Z,7.07
2022-10-21T08:38:55.566Z,6.13
2022-10-21T08:41:47.685Z,5.90
2022-10-21T08:44:28.462Z,7.03
2022-10-21T08:47:03.500Z,6.53
2022-10-21T08:49:38.185Z,10.27
2022-10-21T08:52:12.141Z,9.30
2022-10-21T08:54:45.663Z,6.03
2022-10-21T08:57:14.166Z,8.77
2022-10-21T08:59:42.787Z,7.97
2022-10-21T09:02:33.165Z,13.07
2022-10-21T09:05:19.590Z,7.00
2022-10-21T09:07:58.407Z,8.43
2022-10-21T09:10:38.862Z,8.23
2022-10-21T09:13:13.910Z,9.97
2022-10-21T09:15:53.322Z,11.00
2022-10-21T09:18:33.842Z,11.47
2022-10-21T09:21:08.415Z,10.17
2022-10-21T09:23:43.910Z,9.83
2022-10-21T09:26:28.011Z,12.03
2022-10-21T09:28:58.257Z,9.70
2022-10-21T09:31:26.605Z,11.60
2022-10-21T09:34:00.441Z,15.90
2022-10-21T09:36:34.886Z,10.37
2022-10-21T09:39:08.233Z,10.67
2022-10-21T09:41:41.767Z,8.37
2022-10-21T09:44:15.873Z,9.27
2022-10-21T09:46:46.348Z,7.47
2022-10-21T09:52:14.298Z,7.57
2022-10-21T09:54:43.972Z,7.70
2022-10-21T09:57:15.559Z,7.50
2022-10-21T09:59:59.455Z,6.57
2022-10-21T10:02:33.109Z,7.07
2022-10-21T10:05:05.347Z,14.63
2022-10-21T10:07:36.776Z,9.30
2022-10-21T10:10:31.920Z,7.53
2022-10-21T10:13:01.373Z,6.13
2022-10-21T10:15:36.176Z,7.53
2022-10-21T10:18:04.898Z,9.77
2022-10-21T10:20:33.871Z,13.87
2022-10-21T10:23:11.277Z,7.63
2022-10-21T10:25:40.370Z,6.27
2022-10-21T10:28:21.460Z,7.73
2022-10-21T10:30:53.192Z,8.10
2022-10-21T10:33:24.921Z,7.13
2022-10-21T10:35:57.387Z,11.07
2022-10-21T10:38:29.758Z,21.23
2022-10-21T10:41:06.146Z,5.53
2022-10-21T10:43:36.142Z,6.10
2022-10-21T10:46:08.046Z,5.97
2022-10-21T10:48:38.969Z,4.33
2022-10-21T10:51:24.470Z,3.03
2022-10-21T10:54:02.245Z,4.40
2022-10-21T10:56:33.537Z,3.33
2022-10-21T10:59:22.136Z,4.53
2022-10-21T11:01:58.634Z,5.20
2022-10-21T11:04:33.786Z,3.23
2022-10-21T11:07:14.235Z,2.07
2022-10-21T11:09:41.902Z,2.57
2022-10-21T11:12:20.721Z,4.70
2022-10-21T11:14:52.676Z,4.47
2022-10-21T11:17:26.591Z,2.23
2022-10-21T11:20:00.414Z,3.43
2022-10-21T11:22:41.170Z,4.50
2022-10-21T11:25:19.520Z,5.30
2022-10-21T11:28:01.414Z,2.43
2022-10-21T11:30:38.006Z,5.17
2022-10-21T11:33:16.137Z,2.27
2022-10-21T11:35:55.505Z,4.47
2022-10-21T11:38:41.278Z,5.47
2022-10-21T11:41:27.174Z,2.53
2022-10-21T11:44:09.433Z,1.83
2022-10-21T11:46:46.299Z,3.80
2022-10-21T11:49:37.304Z,2.67
2022-10-21T11:52:18.405Z,2.20
2022-10-21T11:55:12.194Z,1.70
2022-10-21T11:57:52.824Z,2.90
2022-10-21T12:00:23.399Z,3.17
2022-10-21T12:03:20.734Z,2.73
2022-10-21T12:05:56.143Z,1.20
2022-10-21T12:08:29.269Z,0.93
2022-10-21T12:11:06.779Z,0.80
2022-10-21T12:13:40.819Z,1.60
2022-10-21T12:16:11.698Z,0.50
2022-10-21T12:18:44.502Z,1.27
2022-10-21T12:21:17.290Z,0.60
2022-10-21T12:23:47.490Z,0.97
2022-10-21T12:26:23.513Z,1.03
2022-10-21T12:29:00.058Z,3.00
2022-10-21T12:31:40.378Z,0.30
2022-10-21T12:34:11.271Z,0.40
2022-10-21T12:36:45.457Z,0.33
2022-10-21T12:39:38.770Z,3.13
2022-10-21T12:42:13.897Z,0.90
2022-10-21T12:44:47.223Z,1.37
2022-10-21T12:47:30.119Z,5.37
2022-10-21T12:50:07.822Z,0.63
2022-10-21T12:52:38.735Z,1.00
2022-10-21T12:55:18.494Z,0.87
2022-10-21T12:57:56.806Z,0.60
2022-10-21T13:00:53.538Z,0.87
2022-10-21T13:03:23.175Z,0.30
2022-10-21T13:06:03.834Z,0.43
2022-10-21T13:08:41.402Z,1.90
2022-10-21T13:11:37.860Z,0.53
2022-10-21T13:14:40.173Z,0.50
2022-10-21T13:17:32.542Z,0.80
2022-10-21T13:20:39.616Z,4.13
2022-10-21T13:23:31.971Z,0.63
2022-10-21T13:26:14.536Z,3.23
2022-10-21T13:28:43.031Z,1.00
2022-10-21T13:31:22.392Z,1.13
2022-10-21T13:33:53.570Z,1.17
2022-10-21T13:39:21.305Z,0.87
2022-10-21T13:41:59.523Z,0.73
2022-10-21T13:44:31.581Z,0.60
2022-10-21T13:47:19.566Z,0.70
2022-10-21T13:49:51.987Z,3.47
2022-10-21T13:52:20.536Z,0.90
2022-10-21T13:54:57.254Z,1.03
2022-10-21T13:57:29.424Z,0.60
2022-10-21T14:00:01.428Z,1.83
2022-10-21T14:02:31.510Z,1.33
2022-10-21T14:04:59.177Z,1.00
2022-10-21T14:07:28.121Z,1.20
2022-10-21T14:09:58.089Z,1.20
2022-10-21T14:12:29.681Z,1.40
2022-10-21T14:15:02.565Z,0.60
2022-10-21T14:17:33.179Z,1.20
2022-10-21T14:20:07.532Z,1.43
2022-10-21T14:22:35.750Z,9.73
2022-10-21T14:25:04.027Z,2.30
2022-10-21T14:27:34.143Z,1.17
2022-10-21T14:30:05.598Z,4.50
2022-10-21T14:32:35.390Z,0.80
2022-10-21T14:35:07.684Z,3.50
2022-10-21T14:37:37.969Z,2.43
2022-10-21T14:40:20.239Z,2.23
2022-10-21T14:42:52.469Z,2.13
2022-10-21T14:45:26.989Z,3.93
2022-10-21T14:48:02.695Z,3.03
2022-10-21T14:50:30.405Z,1.97
2022-10-21T14:52:58.676Z,2.03
2022-10-21T14:55:30.018Z,1.70
2022-10-21T14:58:04.430Z,2.20
2022-10-21T15:00:36.425Z,2.57
2022-10-21T15:03:05.463Z,2.80
2022-10-21T15:05:37.786Z,1.83
2022-10-21T15:08:29.245Z,2.37
2022-10-21T15:11:23.736Z,5.60
2022-10-21T15:14:00.141Z,5.20
2022-10-21T15:16:30.763Z,1.30
2022-10-21T15:19:06.650Z,2.77
2022-10-21T15:21:37.646Z,1.90
2022-10-21T15:24:06.730Z,1.60
2022-10-21T15:26:38.405Z,4.13
2022-10-21T15:29:14.489Z,1.40
2022-10-21T15:31:42.325Z,3.23
2022-10-21T15:34:16.018Z,3.23
2022-10-21T15:36:44.282Z,5.00
2022-10-21T15:39:12.631Z,1.10
2022-10-21T15:41:41.149Z,2.60
2022-10-21T15:44:18.721Z,2.57
2022-10-21T15:46:50.184Z,2.63
2022-10-21T15:49:21.460Z,4.47
2022-10-21T15:51:50.777Z,1.77
2022-10-21T15:54:19.706Z,4.43
2022-10-21T15:56:50.039Z,3.47
2022-10-21T15:59:20.069Z,2.27
2022-10-21T16:01:49.477Z,1.73
2022-10-21T16:04:19.101Z,2.80
2022-10-21T16:06:49.208Z,5.40
2022-10-21T16:09:21.003Z,2.73
2022-10-21T16:11:58.894Z,1.90
2022-10-21T16:14:29.500Z,3.67
2022-10-21T16:17:00.862Z,2.20
2022-10-21T16:19:30.046Z,2.67
2022-10-21T16:21:58.062Z,1.80
2022-10-21T16:24:25.892Z,2.87
2022-10-21T16:26:53.972Z,2.17
2022-10-21T16:29:23.692Z,2.03
2022-10-21T16:31:52.507Z,4.47
2022-10-21T16:34:20.156Z,1.70
2022-10-21T16:36:49.543Z,2.53
2022-10-21T16:39:19.831Z,2.23
2022-10-21T16:41:47.787Z,3.07
2022-10-21T16:44:15.801Z,2.93
2022-10-21T16:46:50.201Z,3.43
2022-10-21T16:49:23.351Z,3.63
2022-10-21T16:51:53.501Z,3.90
2022-10-21T16:54:22.557Z,3.20
2022-10-21T16:56:53.386Z,3.27
2022-10-21T16:59:22.998Z,3.40
2022-10-21T17:01:50.649Z,3.67
2022-10-21T17:04:18.417Z,4.80
2022-10-21T17:06:46.588Z,3.50
2022-10-21T17:09:15.894Z,2.90
2022-10-21T17:11:44.525Z,2.00
2022-10-21T17:14:16.546Z,3.17
2022-10-21T17:16:46.560Z,1.67
2022-10-21T17:19:14.898Z,3.57
2022-10-21T17:21:43.812Z,2.33
2022-10-21T17:24:15.867Z,1.97
2022-10-21T17:26:44.125Z,1.00
2022-10-21T17:29:12.393Z,2.03
2022-10-21T17:31:42.535Z,1.43
2022-10-21T17:34:27.582Z,1.10
2022-10-21T17:36:55.894Z,1.90
2022-10-21T17:39:25.477Z,1.87
2022-10-21T17:41:53.399Z,1.30
2022-10-21T17:44:21.504Z,1.33
2022-10-21T17:46:51.834Z,1.70
2022-10-21T17:49:19.580Z,1.93
2022-10-21T17:51:49.457Z,0.97
2022-10-21T17:54:17.416Z,2.50
2022-10-21T17:56:46.898Z,1.53
2022-10-21T17:59:14.567Z,1.70
2022-10-21T18:01:42.282Z,5.20
2022-10-21T18:04:11.425Z,2.33
2022-10-21T18:06:40.149Z,2.57
2022-10-21T18:09:08.924Z,3.67
2022-10-21T18:11:39.005Z,6.03
2022-10-21T18:14:08.002Z,2.27
2022-10-21T18:16:36.504Z,1.33
2022-10-21T18:19:04.176Z,1.47
2022-10-21T18:21:32.289Z,1.57
2022-10-21T18:23:59.959Z,4.27
2022-10-21T18:26:30.600Z,1.80
2022-10-21T18:29:00.791Z,3.73
2022-10-21T18:31:32.198Z,1.70
2022-10-21T18:34:02.058Z,2.57
2022-10-21T18:36:30.384Z,2.33
2022-10-21T18:38:59.434Z,3.53
2022-10-21T18:41:27.468Z,2.07
2022-10-21T18:43:56.511Z,2.57
2022-10-21T18:46:25.070Z,5.80
2022-10-21T18:48:54.101Z,2.87
2022-10-21T18:51:24.130Z,4.33
2022-10-21T18:53:53.080Z,7.03
2022-10-21T18:56:23.033Z,2.03
2022-10-21T18:58:51.354Z,4.33
2022-10-21T19:01:20.735Z,3.07
2022-10-21T19:03:50.710Z,3.40
2022-10-21T19:06:30.034Z,3.13
2022-10-21T19:08:57.900Z,3.40
2022-10-21T19:11:25.921Z,2.47
2022-10-21T19:13:53.562Z,4.07
2022-10-21T19:16:21.263Z,2.20
2022-10-21T19:18:48.919Z,1.33
2022-10-21T19:21:20.407Z,1.87
2022-10-21T19:23:48.625Z,3.27
2022-10-21T19:26:18.852Z,2.03
2022-10-21T19:28:49.562Z,2.20
2022-10-21T19:31:21.337Z,1.97
2022-10-21T19:33:49.202Z,2.87
2022-10-21T19:36:17.504Z,3.47
2022-10-21T19:38:46.479Z,2.70
2022-10-21T19:41:17.682Z,1.53
2022-10-21T19:43:45.553Z,2.73
2022-10-21T19:46:20.070Z,3.43
2022-10-21T19:48:50.309Z,2.03
2022-10-21T19:51:21.520Z,1.83
2022-10-21T19:53:51.627Z,2.90
2022-10-21T19:56:25.470Z,1.63
2022-10-21T19:58:55.831Z,2.23
2022-10-21T20:01:25.740Z,2.20
2022-10-21T20:03:54.891Z,1.50
2022-10-21T20:06:25.100Z,1.77
2022-10-21T20:08:56.341Z,1.77
2022-10-21T20:11:25.041Z,1.40
2022-10-21T20:13:53.078Z,1.83
2022-10-21T20:16:22.886Z,6.23
2022-10-21T20:18:51.083Z,1.90
2022-10-21T20:21:19.121Z,1.27
2022-10-21T20:23:46.998Z,2.10
2022-10-21T20:26:16.058Z,0.87
2022-10-21T20:28:44.351Z,1.33
2022-10-21T20:31:14.010Z,1.10
2022-10-21T20:33:43.365Z,1.87
2022-10-21T20:36:14.258Z,2.90
2022-10-21T20:38:42.206Z,1.57
2022-10-21T20:41:13.250Z,1.50
2022-10-21T20:43:43.265Z,1.87
2022-10-21T20:46:13.942Z,2.23
2022-10-21T20:48:42.823Z,1.57
2022-10-21T20:51:13.277Z,3.83
2022-10-21T20:53:45.417Z,2.30
2022-10-21T20:56:13.702Z,1.07
2022-10-21T20:58:43.321Z,1.07
2022-10-21T21:01:12.721Z,1.23
2022-10-21T21:03:42.656Z,1.33
2022-10-21T21:06:11.845Z,1.33
2022-10-21T21:08:48.875Z,1.53
2022-10-21T21:11:21.821Z,1.50
2022-10-21T21:13:50.828Z,0.67
2022-10-21T21:16:21.434Z,0.93
2022-10-21T21:18:52.300Z,0.67
2022-10-21T21:21:22.265Z,1.10
2022-10-21T21:23:50.461Z,1.97
2022-10-21T21:26:20.080Z,1.17
2022-10-21T21:28:49.089Z,2.50
2022-10-21T21:31:19.860Z,6.80
2022-10-21T21:33:48.045Z,0.70
2022-10-21T21:36:18.205Z,1.00
2022-10-21T21:38:45.903Z,21.07
2022-10-21T21:41:15.125Z,3.27
2022-10-21T21:43:43.661Z,2.77
2022-10-21T21:46:11.745Z,1.73
2022-10-21T21:48:44.415Z,1.77
2022-10-21T21:51:15.632Z,1.10
2022-10-21T21:53:43.294Z,1.37
2022-10-21T21:56:12.227Z,3.53
2022-10-21T21:58:40.230Z,0.97
2022-10-21T22:01:12.623Z,1.87
2022-10-21T22:03:41.989Z,1.90
2022-10-21T22:06:10.559Z,3.43
2022-10-21T22:08:39.723Z,3.00
2022-10-21T22:11:10.036Z,2.00
2022-10-21T22:13:38.345Z,1.50
2022-10-21T22:16:07.703Z,0.70
2022-10-21T22:18:35.730Z,1.33
2022-10-21T22:21:07.010Z,1.63
2022-10-21T22:23:34.818Z,1.90
2022-10-21T22:26:02.603Z,1.53
2022-10-21T22:28:30.331Z,2.67
2022-10-21T22:31:00.171Z,1.90
2022-10-21T22:33:28.084Z,1.10
2022-10-21T22:35:56.419Z,1.90
2022-10-21T22:38:25.957Z,1.27
2022-10-21T22:40:54.829Z,3.10
2022-10-21T22:43:22.862Z,1.07
2022-10-21T22:45:51.098Z,1.17
2022-10-21T22:48:19.178Z,2.40
2022-10-21T22:50:47.073Z,1.60
2022-10-21T22:53:15.814Z,2.57
2022-10-21T22:55:44.819Z,2.50
2022-10-21T22:58:16.600Z,1.67
2022-10-21T23:00:44.485Z,5.70
2022-10-21T23:03:12.494Z,1.27
2022-10-21T23:05:40.126Z,1.00
2022-10-21T23:08:08.198Z,2.20
2022-10-21T23:10:35.887Z,1.33
2022-10-21T23:13:06.130Z,2.27
2022-10-21T23:15:34.671Z,1.63
2022-10-21T23:18:02.738Z,3.03
2022-10-21T23:20:30.514Z,3.03
2022-10-21T23:22:58.649Z,1.50
2022-10-21T23:25:26.542Z,2.30
2022-10-21T23:27:54.730Z,2.30
2022-10-21T23:30:23.742Z,2.37
2022-10-21T23:32:52.285Z,1.33
2022-10-21T23:35:20.839Z,2.00
2022-10-21T23:37:49.313Z,1.77
2022-10-21T23:40:16.960Z,1.53
2022-10-21T23:42:44.934Z,2.83
2022-10-21T23:45:12.727Z,1.13
2022-10-21T23:47:42.396Z,1.13
2022-10-21T23:50:11.015Z,1.07
2022-10-21T23:52:39.175Z,2.93
2022-10-21T23:55:08.096Z,0.80
2022-10-21T23:57:36.594Z,0.63
